createdAt,value
2019-03-23T00:01:57.795Z,22.83
2019-03-23T00:04:26.342Z,24.83
2019-03-23T00:06:54.801Z,30.60
2019-03-23T00:09:23.359Z,31.57
2019-03-23T00:11:51.816Z,29.40
2019-03-23T00:14:20.375Z,25.53
2019-03-23T00:16:48.904Z,24.77
2019-03-23T00:19:17.648Z,29.00
2019-03-23T00:21:46.204Z,24.57
2019-03-23T00:24:14.730Z,20.20
2019-03-23T00:26:43.219Z,20.80
2019-03-23T00:29:11.810Z,25.50
2019-03-23T00:31:40.331Z,33.23
2019-03-23T00:34:08.807Z,17.83
2019-03-23T00:36:41.503Z,22.20
2019-03-23T00:39:07.599Z,26.60
2019-03-23T00:41:36.122Z,24.20
2019-03-23T00:44:04.671Z,24.33
2019-03-23T00:46:33.127Z,21.67
2019-03-23T00:49:01.603Z,30.27
2019-03-23T00:51:30.063Z,21.80
2019-03-23T00:53:58.774Z,20.40
2019-03-23T00:56:27.255Z,18.77
2019-03-23T00:58:55.712Z,25.03
2019-03-23T01:01:24.335Z,23.20
2019-03-23T01:03:52.873Z,18.87
2019-03-23T01:06:21.417Z,23.10
2019-03-23T01:08:49.867Z,21.40
2019-03-23T01:11:18.395Z,23.00
2019-03-23T01:13:46.943Z,22.20
2019-03-23T01:16:15.394Z,17.17
2019-03-23T01:18:43.874Z,23.23
2019-03-23T01:21:12.327Z,22.23
2019-03-23T01:23:40.809Z,26.10
2019-03-23T01:26:09.362Z,23.53
2019-03-23T01:28:37.896Z,24.30
2019-03-23T01:31:06.347Z,20.07
2019-03-23T01:33:35.163Z,20.40
2019-03-23T01:36:03.954Z,20.50
2019-03-23T01:38:32.403Z,22.37
2019-03-23T01:41:00.882Z,22.67
2019-03-23T01:43:29.410Z,22.47
2019-03-23T01:45:57.891Z,20.27
2019-03-23T01:48:26.414Z,23.13
2019-03-23T01:50:54.895Z,19.93
2019-03-23T01:53:23.343Z,24.23
2019-03-23T01:55:52.221Z,21.70
2019-03-23T01:58:20.751Z,16.60
2019-03-23T02:00:49.239Z,21.67
2019-03-23T02:03:17.827Z,19.63
2019-03-23T02:05:46.450Z,18.03
2019-03-23T02:08:14.910Z,20.00
2019-03-23T02:10:43.460Z,20.93
2019-03-23T02:13:11.919Z,16.40
2019-03-23T02:15:40.701Z,17.13
2019-03-23T02:18:09.294Z,15.80
2019-03-23T02:20:37.779Z,15.23
2019-03-23T02:23:06.227Z,14.50
2019-03-23T02:25:34.759Z,23.30
2019-03-23T02:28:03.235Z,17.13
2019-03-23T02:30:31.693Z,16.97
2019-03-23T02:33:00.239Z,22.80
2019-03-23T02:35:29.065Z,17.87
2019-03-23T02:37:57.937Z,19.50
2019-03-23T02:40:26.397Z,17.80
2019-03-23T02:42:54.951Z,17.30
2019-03-23T02:45:23.413Z,19.20
2019-03-23T02:47:51.968Z,19.53
2019-03-23T02:50:20.502Z,17.63
2019-03-23T02:52:49.057Z,18.47
2019-03-23T02:55:17.916Z,18.40
2019-03-23T02:57:46.392Z,17.60
2019-03-23T03:00:16.555Z,18.80
2019-03-23T03:02:45.079Z,21.03
2019-03-23T03:05:14.000Z,23.43
2019-03-23T03:07:43.827Z,19.70
2019-03-23T03:10:15.736Z,15.00
2019-03-23T03:12:44.282Z,21.80
2019-03-23T03:15:13.239Z,22.07
2019-03-23T03:17:41.705Z,17.10
2019-03-23T03:20:10.905Z,18.63
2019-03-23T03:22:39.756Z,15.80
2019-03-23T03:25:09.264Z,17.40
2019-03-23T03:27:37.840Z,17.97
2019-03-23T03:30:08.864Z,17.47
2019-03-23T03:32:37.477Z,21.37
2019-03-23T03:35:06.789Z,17.73
2019-03-23T03:37:35.399Z,19.50
2019-03-23T03:40:05.721Z,24.17
2019-03-23T03:42:34.463Z,18.00
2019-03-23T03:45:03.713Z,18.73
2019-03-23T03:47:32.251Z,18.13
2019-03-23T03:50:00.781Z,21.07
2019-03-23T03:52:29.714Z,16.43
2019-03-23T03:54:58.572Z,20.70
2019-03-23T03:57:27.366Z,18.83
2019-03-23T03:59:55.897Z,16.03
2019-03-23T04:02:24.447Z,17.67
2019-03-23T04:04:52.905Z,18.10
2019-03-23T04:07:21.805Z,19.50
2019-03-23T04:09:50.342Z,20.73
2019-03-23T04:12:18.896Z,16.20
2019-03-23T04:14:47.429Z,20.70
2019-03-23T04:17:15.964Z,18.93
2019-03-23T04:19:44.523Z,16.40
2019-03-23T04:22:13.061Z,17.97
2019-03-23T04:24:41.616Z,20.00
2019-03-23T04:27:10.373Z,22.03
2019-03-23T04:29:38.937Z,15.53
2019-03-23T04:32:07.474Z,16.03
2019-03-23T04:34:36.033Z,15.37
2019-03-23T04:37:04.708Z,20.73
2019-03-23T04:39:33.188Z,19.40
2019-03-23T04:42:01.644Z,18.10
2019-03-23T04:44:30.136Z,18.43
2019-03-23T04:46:58.667Z,15.93
2019-03-23T04:49:27.295Z,15.90
2019-03-23T04:51:55.779Z,16.83
2019-03-23T04:54:24.588Z,14.47
2019-03-23T04:56:53.076Z,17.53
2019-03-23T04:59:21.608Z,17.00
2019-03-23T05:01:50.181Z,16.00
2019-03-23T05:04:18.707Z,21.43
2019-03-23T05:06:47.187Z,21.73
2019-03-23T05:09:15.643Z,16.87
2019-03-23T05:11:44.134Z,18.47
2019-03-23T05:14:12.655Z,16.60
2019-03-23T05:16:41.139Z,20.90
2019-03-23T05:19:09.588Z,16.50
2019-03-23T05:21:38.076Z,14.10
2019-03-23T05:24:06.541Z,13.97
2019-03-23T05:26:35.072Z,13.03
2019-03-23T05:29:03.552Z,18.77
2019-03-23T05:31:32.422Z,16.00
2019-03-23T05:34:00.909Z,16.93
2019-03-23T05:36:29.439Z,24.90
2019-03-23T05:38:57.915Z,17.77
2019-03-23T05:41:26.443Z,18.13
2019-03-23T05:43:54.999Z,18.03
2019-03-23T05:46:23.452Z,20.57
2019-03-23T05:48:51.939Z,18.50
2019-03-23T05:51:20.396Z,22.33
2019-03-23T05:53:49.168Z,19.53
2019-03-23T05:56:17.694Z,18.80
2019-03-23T05:58:46.255Z,17.17
2019-03-23T06:01:14.912Z,17.47
2019-03-23T06:03:43.368Z,14.10
2019-03-23T06:06:11.851Z,15.53
2019-03-23T06:08:40.311Z,16.63
2019-03-23T06:11:08.794Z,19.20
2019-03-23T06:13:37.535Z,15.53
2019-03-23T06:16:06.544Z,18.63
2019-03-23T06:18:34.999Z,17.50
2019-03-23T06:21:03.792Z,17.90
2019-03-23T06:23:32.256Z,18.67
2019-03-23T06:26:00.813Z,19.90
2019-03-23T06:28:29.343Z,16.83
2019-03-23T06:30:57.828Z,17.87
2019-03-23T06:33:26.279Z,17.40
2019-03-23T06:35:54.740Z,18.00
2019-03-23T06:38:23.573Z,19.60
2019-03-23T06:40:52.362Z,20.53
2019-03-23T06:43:21.253Z,18.27
2019-03-23T06:45:50.047Z,22.93
2019-03-23T06:48:18.600Z,17.60
2019-03-23T06:50:47.411Z,19.90
2019-03-23T06:53:15.895Z,21.43
2019-03-23T06:55:44.352Z,18.60
2019-03-23T06:58:12.907Z,16.20
2019-03-23T07:00:41.367Z,24.10
2019-03-23T07:03:10.129Z,19.03
2019-03-23T07:05:38.731Z,17.40
2019-03-23T07:08:07.293Z,15.57
2019-03-23T07:10:36.091Z,20.07
2019-03-23T07:13:04.619Z,18.13
2019-03-23T07:15:33.101Z,22.40
2019-03-23T07:18:01.564Z,23.60
2019-03-23T07:20:30.128Z,20.27
2019-03-23T07:22:58.663Z,21.13
2019-03-23T07:25:27.227Z,24.10
2019-03-23T07:27:55.756Z,20.83
2019-03-23T07:30:24.308Z,19.67
2019-03-23T07:32:52.763Z,23.43
2019-03-23T07:35:21.325Z,17.43
2019-03-23T07:37:49.923Z,22.90
2019-03-23T07:40:18.470Z,22.03
2019-03-23T07:42:46.936Z,21.40
2019-03-23T07:45:16.340Z,22.33
2019-03-23T07:47:44.871Z,20.03
2019-03-23T07:50:15.864Z,23.00
2019-03-23T07:52:44.647Z,18.73
2019-03-23T07:55:14.546Z,23.10
2019-03-23T07:57:43.411Z,20.77
2019-03-23T08:00:14.437Z,21.80
2019-03-23T08:02:43.111Z,21.17
2019-03-23T08:05:11.664Z,21.23
2019-03-23T08:07:40.124Z,23.77
2019-03-23T08:10:09.348Z,20.33
2019-03-23T08:12:37.871Z,21.07
2019-03-23T08:15:08.510Z,22.43
2019-03-23T08:17:37.493Z,23.40
2019-03-23T08:20:07.366Z,20.60
2019-03-23T08:22:35.921Z,20.00
2019-03-23T08:25:06.392Z,20.73
2019-03-23T08:27:34.954Z,19.27
2019-03-23T08:30:04.461Z,22.97
2019-03-23T08:32:32.920Z,20.40
2019-03-23T08:35:01.400Z,21.17
2019-03-23T08:37:29.872Z,166.00
2019-03-23T08:39:58.359Z,142.63
2019-03-23T08:42:27.091Z,23.27
2019-03-23T08:44:55.576Z,26.13
2019-03-23T08:47:24.039Z,24.20
2019-03-23T08:49:52.597Z,24.47
2019-03-23T08:52:21.237Z,21.40
2019-03-23T08:54:49.778Z,17.83
2019-03-23T08:57:18.699Z,21.57
2019-03-23T08:59:47.159Z,19.77
2019-03-23T09:02:15.653Z,19.70
2019-03-23T09:04:44.187Z,21.23
2019-03-23T09:07:12.752Z,24.83
2019-03-23T09:09:42.088Z,19.67
2019-03-23T09:12:10.571Z,18.20
2019-03-23T09:14:39.034Z,52.13
2019-03-23T09:17:07.519Z,31.00
2019-03-23T09:19:35.983Z,20.33
2019-03-23T09:22:04.661Z,22.70
2019-03-23T09:24:33.231Z,21.03
2019-03-23T09:27:01.764Z,18.43
2019-03-23T09:29:30.396Z,22.93
2019-03-23T09:31:58.940Z,21.50
2019-03-23T09:34:27.499Z,23.23
2019-03-23T09:36:56.245Z,23.13
2019-03-23T09:39:24.808Z,21.37
2019-03-23T09:41:53.348Z,19.97
2019-03-23T09:44:21.905Z,21.90
2019-03-23T09:46:50.367Z,17.20
2019-03-23T09:49:19.270Z,22.00
2019-03-23T09:51:47.812Z,17.67
2019-03-23T09:54:16.303Z,16.70
2019-03-23T09:56:44.819Z,18.77
2019-03-23T09:59:13.299Z,21.53
2019-03-23T10:01:42.183Z,17.90
2019-03-23T10:04:10.643Z,20.07
2019-03-23T10:06:39.127Z,17.80
2019-03-23T10:09:07.743Z,18.70
2019-03-23T10:11:36.298Z,27.07
2019-03-23T10:14:05.338Z,21.00
2019-03-23T10:16:33.876Z,18.17
2019-03-23T10:19:02.368Z,23.27
2019-03-23T10:21:30.831Z,17.00
2019-03-23T10:23:59.315Z,17.77
2019-03-23T10:26:27.780Z,16.93
2019-03-23T10:28:56.331Z,17.20
2019-03-23T10:31:24.800Z,16.40
2019-03-23T10:33:53.260Z,23.33
2019-03-23T10:36:21.831Z,18.80
2019-03-23T10:38:50.295Z,18.83
2019-03-23T10:41:18.992Z,16.63
2019-03-23T10:43:47.456Z,16.50
2019-03-23T10:46:15.948Z,18.43
2019-03-23T10:48:44.475Z,17.60
2019-03-23T10:51:12.935Z,17.80
2019-03-23T10:53:41.419Z,16.17
2019-03-23T10:56:09.951Z,16.60
2019-03-23T10:58:38.440Z,16.33
2019-03-23T11:01:06.899Z,19.37
2019-03-23T11:03:35.463Z,16.00
2019-03-23T11:06:03.995Z,15.73
2019-03-23T11:08:32.563Z,17.30
2019-03-23T11:11:01.095Z,16.17
2019-03-23T11:13:29.583Z,15.03
2019-03-23T11:15:58.048Z,15.90
2019-03-23T11:18:26.542Z,16.02
2019-03-23T11:20:55.008Z,17.25
2019-03-23T11:23:23.815Z,16.60
2019-03-23T11:25:52.603Z,16.30
2019-03-23T11:28:21.067Z,19.83
2019-03-23T11:30:49.552Z,19.67
2019-03-23T11:33:18.040Z,18.97
2019-03-23T11:35:46.618Z,18.03
2019-03-23T11:38:15.192Z,19.43
2019-03-23T11:40:52.722Z,18.53
2019-03-23T11:43:14.631Z,19.87
2019-03-23T11:45:43.097Z,20.20
2019-03-23T11:48:11.562Z,18.20
2019-03-23T11:50:40.120Z,18.07
2019-03-23T11:53:08.580Z,20.30
2019-03-23T11:55:37.073Z,21.80
2019-03-23T11:58:05.612Z,17.60
2019-03-23T12:00:34.318Z,19.10
2019-03-23T12:03:02.852Z,18.33
2019-03-23T12:05:31.420Z,20.10
2019-03-23T12:07:59.883Z,20.93
2019-03-23T12:10:28.347Z,20.10
2019-03-23T12:12:56.835Z,19.43
2019-03-23T12:15:25.302Z,22.30
2019-03-23T12:17:53.864Z,20.73
2019-03-23T12:20:22.401Z,23.83
2019-03-23T12:22:50.939Z,24.37
2019-03-23T12:25:19.500Z,19.07
2019-03-23T12:27:48.032Z,21.80
2019-03-23T12:30:18.035Z,21.27
2019-03-23T12:32:46.682Z,19.53
2019-03-23T12:35:15.314Z,22.00
2019-03-23T12:37:43.920Z,23.53
2019-03-23T12:40:12.895Z,20.10
2019-03-23T12:42:41.672Z,19.80
2019-03-23T12:45:11.150Z,23.27
2019-03-23T12:47:39.639Z,22.30
2019-03-23T12:50:10.142Z,19.27
2019-03-23T12:52:38.769Z,18.33
2019-03-23T12:55:07.668Z,18.10
2019-03-23T12:57:36.155Z,19.37
2019-03-23T13:00:10.396Z,18.20
2019-03-23T13:02:38.867Z,19.37
2019-03-23T13:05:07.755Z,19.23
2019-03-23T13:07:36.278Z,20.30
2019-03-23T13:10:07.292Z,18.00
2019-03-23T13:12:35.891Z,19.97
2019-03-23T13:15:06.533Z,18.70
2019-03-23T13:17:35.155Z,21.60
2019-03-23T13:20:04.248Z,19.50
2019-03-23T13:22:33.124Z,18.90
2019-03-23T13:25:01.651Z,19.33
2019-03-23T13:27:30.215Z,18.13
2019-03-23T13:29:58.680Z,20.07
2019-03-23T13:32:27.480Z,21.03
2019-03-23T13:34:56.011Z,24.03
2019-03-23T13:37:24.503Z,22.10
2019-03-23T13:39:52.968Z,22.17
2019-03-23T13:42:21.507Z,23.07
2019-03-23T13:44:49.996Z,24.20
2019-03-23T13:47:18.483Z,26.13
2019-03-23T13:49:47.023Z,25.10
2019-03-23T13:52:15.555Z,25.20
2019-03-23T13:54:44.044Z,24.90
2019-03-23T13:57:12.531Z,27.00
2019-03-23T13:59:41.067Z,22.67
2019-03-23T14:02:09.527Z,24.03
2019-03-23T14:04:38.349Z,25.53
2019-03-23T14:07:06.888Z,23.67
2019-03-23T14:09:35.447Z,26.33
2019-03-23T14:12:03.979Z,25.77
2019-03-23T14:14:32.948Z,20.60
2019-03-23T14:17:01.480Z,23.70
2019-03-23T14:19:29.971Z,24.20
2019-03-23T14:21:58.431Z,24.07
2019-03-23T14:24:26.891Z,24.60
2019-03-23T14:26:55.453Z,26.90
2019-03-23T14:29:23.983Z,25.90
2019-03-23T14:31:52.479Z,20.83
2019-03-23T14:34:21.016Z,24.37
2019-03-23T14:36:49.503Z,26.93
2019-03-23T14:39:17.973Z,26.87
2019-03-23T14:41:46.527Z,22.23
2019-03-23T14:44:14.988Z,25.10
2019-03-23T14:46:43.452Z,19.50
2019-03-23T14:49:11.944Z,22.50
2019-03-23T14:51:40.477Z,16.80
2019-03-23T14:54:08.964Z,20.00
2019-03-23T14:56:37.815Z,17.20
2019-03-23T14:59:06.784Z,18.33
2019-03-23T15:01:35.252Z,17.50
2019-03-23T15:04:04.156Z,17.57
2019-03-23T15:06:32.624Z,17.40
2019-03-23T15:09:01.156Z,16.30
2019-03-23T15:11:29.639Z,17.57
2019-03-23T15:13:58.103Z,15.40
2019-03-23T15:16:26.596Z,20.70
2019-03-23T15:18:55.065Z,22.30
2019-03-23T15:21:23.625Z,15.13
2019-03-23T15:23:52.083Z,20.30
2019-03-23T15:26:20.904Z,22.17
2019-03-23T15:28:49.367Z,14.03
2019-03-23T15:31:17.859Z,16.00
2019-03-23T15:33:46.395Z,17.13
2019-03-23T15:36:14.879Z,17.80
2019-03-23T15:38:43.351Z,15.03
2019-03-23T15:41:11.884Z,15.13
2019-03-23T15:43:40.447Z,14.73
2019-03-23T15:46:08.907Z,15.90
2019-03-23T15:48:37.471Z,19.73
2019-03-23T15:51:06.004Z,19.80
2019-03-23T15:53:34.496Z,22.90
2019-03-23T15:56:02.963Z,25.97
2019-03-23T15:58:31.425Z,19.50
2019-03-23T16:00:59.975Z,25.03
2019-03-23T16:03:28.440Z,18.27
2019-03-23T16:05:57.244Z,23.20
2019-03-23T16:08:25.717Z,24.97
2019-03-23T16:10:54.271Z,20.30
2019-03-23T16:13:22.805Z,24.00
2019-03-23T16:15:51.364Z,23.30
2019-03-23T16:18:19.824Z,22.57
2019-03-23T16:20:48.371Z,24.20
2019-03-23T16:23:16.927Z,21.77
2019-03-23T16:25:45.401Z,25.13
2019-03-23T16:28:13.961Z,19.30
2019-03-23T16:30:42.419Z,18.07
2019-03-23T16:33:10.912Z,13.70
2019-03-23T16:35:39.451Z,19.07
2019-03-23T16:38:07.940Z,15.90
2019-03-23T16:40:36.399Z,13.93
2019-03-23T16:43:06.336Z,15.00
2019-03-23T16:45:35.280Z,17.07
2019-03-23T16:48:03.956Z,19.17
2019-03-23T16:50:32.443Z,15.10
2019-03-23T16:53:00.904Z,17.70
2019-03-23T16:55:29.391Z,20.23
2019-03-23T16:57:57.859Z,26.00
2019-03-23T17:00:35.329Z,22.10
2019-03-23T17:03:04.403Z,26.73
2019-03-23T17:05:32.931Z,22.13
2019-03-23T17:08:01.419Z,26.70
2019-03-23T17:10:29.943Z,23.50
2019-03-23T17:12:58.426Z,26.70
2019-03-23T17:15:26.958Z,23.90
2019-03-23T17:17:55.588Z,23.60
2019-03-23T17:20:24.051Z,25.93
2019-03-23T17:22:52.847Z,23.63
2019-03-23T17:25:21.375Z,24.43
2019-03-23T17:27:49.908Z,27.60
2019-03-23T17:30:18.468Z,28.43
2019-03-23T17:32:47.005Z,25.60
2019-03-23T17:35:15.567Z,28.40
2019-03-23T17:37:44.031Z,26.67
2019-03-23T17:40:12.827Z,30.23
2019-03-23T17:42:41.612Z,27.70
2019-03-23T17:45:10.544Z,29.27
2019-03-23T17:47:39.007Z,28.83
2019-03-23T17:50:07.667Z,30.60
2019-03-23T17:52:36.335Z,27.50
2019-03-23T17:55:06.464Z,27.00
2019-03-23T17:57:35.004Z,27.30
2019-03-23T18:00:08.347Z,29.10
2019-03-23T18:02:37.575Z,27.50
2019-03-23T18:05:07.874Z,30.50
2019-03-23T18:07:36.436Z,27.53
2019-03-23T18:10:07.403Z,34.83
2019-03-23T18:12:35.960Z,28.70
2019-03-23T18:15:07.742Z,32.50
2019-03-23T18:17:36.447Z,35.40
2019-03-23T18:20:06.152Z,31.90
2019-03-23T18:22:34.620Z,29.37
2019-03-23T18:25:03.928Z,31.10
2019-03-23T18:27:32.389Z,31.43
2019-03-23T18:30:01.027Z,28.70
2019-03-23T18:32:29.560Z,33.00
2019-03-23T18:34:58.032Z,29.43
2019-03-23T18:37:26.593Z,28.53
2019-03-23T18:39:55.133Z,30.73
2019-03-23T18:42:23.720Z,37.37
2019-03-23T18:44:52.291Z,34.70
2019-03-23T18:47:20.756Z,33.87
2019-03-23T18:49:49.243Z,34.07
2019-03-23T18:52:17.703Z,35.53
2019-03-23T18:54:46.191Z,40.87
2019-03-23T18:57:15.016Z,44.33
2019-03-23T18:59:43.891Z,44.90
2019-03-23T19:02:12.352Z,53.20
2019-03-23T19:04:40.844Z,54.70
2019-03-23T19:07:09.304Z,52.20
2019-03-23T19:09:37.844Z,62.47
2019-03-23T19:12:06.403Z,63.63
2019-03-23T19:14:34.868Z,56.00
2019-03-23T19:17:03.353Z,60.17
2019-03-23T19:19:31.816Z,64.53
2019-03-23T19:22:00.299Z,62.70
2019-03-23T19:24:28.838Z,61.63
2019-03-23T19:26:57.327Z,64.67
2019-03-23T19:29:27.641Z,66.77
2019-03-23T19:31:55.999Z,64.67
2019-03-23T19:34:24.535Z,68.97
2019-03-23T19:36:53.025Z,70.23
2019-03-23T19:39:21.851Z,131.83
2019-03-23T19:41:50.339Z,71.50
2019-03-23T19:44:18.904Z,70.63
2019-03-23T19:46:47.371Z,66.90
2019-03-23T19:49:15.930Z,70.23
2019-03-23T19:51:44.394Z,69.50
2019-03-23T19:54:13.276Z,72.30
2019-03-23T19:56:42.139Z,68.47
2019-03-23T19:59:10.628Z,66.37
2019-03-23T20:01:39.091Z,71.90
2019-03-23T20:04:07.575Z,71.63
2019-03-23T20:06:36.107Z,70.90
2019-03-23T20:09:07.084Z,66.87
2019-03-23T20:11:35.623Z,73.77
2019-03-23T20:14:04.525Z,70.80
2019-03-23T20:16:33.012Z,72.83
2019-03-23T20:19:01.472Z,71.40
2019-03-23T20:21:29.955Z,70.60
2019-03-23T20:23:58.496Z,68.93
2019-03-23T20:26:27.134Z,65.93
2019-03-23T20:28:55.663Z,70.83
2019-03-23T20:31:24.151Z,68.07
2019-03-23T20:33:52.610Z,73.13
2019-03-23T20:36:21.430Z,68.97
2019-03-23T20:38:50.359Z,72.20
2019-03-23T20:41:18.826Z,74.67
2019-03-23T20:43:47.315Z,69.10
2019-03-23T20:46:15.848Z,74.07
2019-03-23T20:48:45.128Z,69.93
2019-03-23T20:51:14.364Z,68.80
2019-03-23T20:53:43.096Z,77.97
2019-03-23T20:56:11.559Z,65.90
2019-03-23T20:58:40.046Z,70.63
2019-03-23T21:01:08.509Z,71.37
2019-03-23T21:03:37.001Z,70.93
2019-03-23T21:06:05.534Z,70.20
2019-03-23T21:08:34.476Z,72.23
2019-03-23T21:11:02.968Z,65.27
2019-03-23T21:13:31.431Z,70.27
2019-03-23T21:15:59.928Z,73.87
2019-03-23T21:18:28.392Z,71.20
2019-03-23T21:20:56.924Z,76.17
2019-03-23T21:23:25.478Z,77.47
2019-03-23T21:25:54.007Z,70.20
2019-03-23T21:28:22.564Z,69.40
2019-03-23T21:30:51.022Z,72.20
2019-03-23T21:33:19.512Z,69.13
2019-03-23T21:35:47.978Z,75.70
2019-03-23T21:38:16.513Z,76.20
2019-03-23T21:40:45.004Z,69.70
2019-03-23T21:43:13.464Z,77.53
2019-03-23T21:45:41.956Z,69.43
2019-03-23T21:48:10.587Z,73.30
2019-03-23T21:50:47.056Z,73.40
2019-03-23T21:53:09.264Z,70.97
2019-03-23T21:55:37.828Z,74.83
2019-03-23T21:58:06.427Z,70.77
2019-03-23T22:00:35.759Z,73.57
2019-03-23T22:03:04.927Z,78.90
2019-03-23T22:05:33.455Z,72.13
2019-03-23T22:08:02.016Z,68.87
2019-03-23T22:10:30.479Z,69.40
2019-03-23T22:12:58.963Z,73.77
2019-03-23T22:15:29.211Z,74.87
2019-03-23T22:17:57.839Z,78.40
2019-03-23T22:20:26.367Z,70.43
2019-03-23T22:22:55.161Z,74.03
2019-03-23T22:25:23.952Z,70.10
2019-03-23T22:27:52.421Z,75.70
2019-03-23T22:30:20.976Z,74.23
2019-03-23T22:32:49.782Z,76.07
2019-03-23T22:35:18.348Z,78.10
2019-03-23T22:37:46.884Z,70.30
2019-03-23T22:40:15.516Z,70.97
2019-03-23T22:42:44.054Z,79.23
2019-03-23T22:45:12.747Z,73.50
2019-03-23T22:47:41.592Z,75.83
2019-03-23T22:50:10.432Z,71.47
2019-03-23T22:52:38.991Z,74.93
2019-03-23T22:55:07.588Z,76.07
2019-03-23T22:57:36.075Z,80.77
2019-03-23T23:00:10.567Z,83.80
2019-03-23T23:02:39.459Z,77.03
2019-03-23T23:05:08.163Z,76.13
2019-03-23T23:07:36.701Z,77.37
2019-03-23T23:10:08.627Z,76.43
2019-03-23T23:12:37.091Z,78.43
2019-03-23T23:15:07.623Z,79.53
2019-03-23T23:17:36.087Z,77.00
2019-03-23T23:20:08.071Z,73.63
2019-03-23T23:22:36.551Z,76.33
2019-03-23T23:25:08.561Z,86.83
2019-03-23T23:27:37.534Z,78.07
2019-03-23T23:30:10.512Z,84.17
2019-03-23T23:32:39.343Z,75.90
2019-03-23T23:35:09.352Z,75.50
2019-03-23T23:37:37.981Z,86.50
2019-03-23T23:40:07.192Z,81.57
2019-03-23T23:42:36.345Z,78.30
2019-03-23T23:45:15.481Z,79.53
2019-03-23T23:47:37.508Z,78.57
2019-03-23T23:50:07.675Z,72.80
2019-03-23T23:52:36.155Z,77.57
2019-03-23T23:55:06.355Z,76.30
2019-03-23T23:57:34.988Z,78.30
